Time;durP1;ratioP1;P1;durP2;ratioP2;P2;SDS_P1;SDS_P2;PMS_P1;PMS_P2;Temp;Humidity;BMP_temperature;BMP_pressure;BME280_temperature;BME280_humidity;BME280_pressure;Samples;Min_cycle;Max_cycle;Signal;HPM_P1;HPM_P2
2022/03/22 00:00:11;;;;;;;;;;;22.50;99.90;;;;;;5073627;28;20329;-68
2022/03/22 00:02:38;;;;;;;;;;;22.70;99.90;;;;;;5073686;28;19923;-68
2022/03/22 00:05:05;;;;;;;;;;;22.80;99.90;;;;;;5073749;28;20033;-68
2022/03/22 00:07:31;;;;;;;;;;;22.90;99.90;;;;;;5073812;28;19908;-68
2022/03/22 00:09:58;;;;;;;;;;;22.90;99.90;;;;;;5073561;28;20000;-68
2022/03/22 00:12:25;;;;;;;;;;;22.80;99.90;;;;;;5073441;28;19944;-68
2022/03/22 00:14:51;;;;;;;;;;;22.90;99.90;;;;;;5073819;28;19909;-68
2022/03/22 00:17:18;;;;;;;;;;;23.00;99.90;;;;;;5073503;28;19969;-68
2022/03/22 00:19:45;;;;;;;;;;;23.00;99.90;;;;;;5073596;28;19920;-67
2022/03/22 00:22:11;;;;;;;;;;;23.10;99.90;;;;;;5073431;28;19921;-68
2022/03/22 00:24:38;;;;;;;;;;;23.10;99.90;;;;;;5055644;28;19915;-69
2022/03/22 00:27:05;;;;;;;;;;;23.30;99.90;;;;;;5073504;28;19961;-68
2022/03/22 00:29:34;;;;;;;;;;;23.30;99.90;;;;;;5073547;28;20386;-68
2022/03/22 00:32:02;;;;;;;;;;;23.40;99.90;;;;;;5073136;28;19913;-69
2022/03/22 00:34:28;;;;;;;;;;;23.30;99.90;;;;;;5073365;28;19912;-68
2022/03/22 00:36:58;;;;;;;;;;;23.40;99.90;;;;;;5073272;28;20358;-69
2022/03/22 00:39:28;;;;;;;;;;;23.40;99.90;;;;;;5073413;28;19962;-69
2022/03/22 00:41:54;;;;;;;;;;;23.60;99.90;;;;;;5073301;28;19947;-69
2022/03/22 00:44:24;;;;;;;;;;;23.70;99.90;;;;;;5073222;28;19912;-69
2022/03/22 00:46:50;;;;;;;;;;;23.70;99.90;;;;;;5073071;28;19955;-68
2022/03/22 00:49:17;;;;;;;;;;;23.80;99.90;;;;;;5073091;28;19948;-69
2022/03/22 00:51:44;;;;;;;;;;;23.80;99.90;;;;;;5073005;28;19908;-69
2022/03/22 00:54:14;;;;;;;;;;;23.80;99.90;;;;;;5072852;28;19908;-69
2022/03/22 00:56:43;;;;;;;;;;;23.90;99.90;;;;;;5073322;28;19962;-69
2022/03/22 01:01:54;;;;;;;;;;;24.00;99.90;;;;;;5073403;28;20281;-69
2022/03/22 01:04:24;;;;;;;;;;;24.00;99.90;;;;;;5072843;28;19946;-69
2022/03/22 01:06:51;;;;;;;;;;;24.20;99.90;;;;;;5073108;28;19912;-69
2022/03/22 01:09:18;;;;;;;;;;;24.20;99.90;;;;;;5073446;28;19908;-69
2022/03/22 01:11:46;;;;;;;;;;;24.40;99.90;;;;;;5073076;28;19909;-70
2022/03/22 01:14:13;;;;;;;;;;;24.60;99.90;;;;;;5072920;28;19963;-69
2022/03/22 01:16:40;;;;;;;;;;;24.70;99.90;;;;;;5070840;28;20351;-67
2022/03/22 01:19:07;;;;;;;;;;;24.80;99.90;;;;;;5067462;28;19920;-68
2022/03/22 01:21:34;;;;;;;;;;;25.50;99.90;;;;;;5072373;28;19912;-67
2022/03/22 01:24:03;;;;;;;;;;;25.60;99.90;;;;;;5073107;28;19919;-68
2022/03/22 01:26:30;;;;;;;;;;;26.10;99.90;;;;;;5073117;28;19909;-68
2022/03/22 01:28:57;;;;;;;;;;;26.00;99.90;;;;;;5072933;28;20009;-68
2022/03/22 01:31:25;;;;;;;;;;;26.00;99.90;;;;;;5073083;28;19908;-68
2022/03/22 01:33:52;;;;;;;;;;;26.90;99.90;;;;;;5072497;28;19912;-68
2022/03/22 01:36:19;;;;;;;;;;;26.90;99.90;;;;;;5072432;28;19971;-68
2022/03/22 01:38:46;;;;;;;;;;;27.00;99.90;;;;;;5072851;28;20145;-69
2022/03/22 01:41:13;;;;;;;;;;;27.20;99.90;;;;;;5072826;28;19936;-69
2022/03/22 01:43:40;;;;;;;;;;;27.00;99.90;;;;;;5072826;28;19908;-68
2022/03/22 01:46:06;;;;;;;;;;;26.40;99.90;;;;;;5072477;28;20362;-68
2022/03/22 01:48:33;;;;;;;;;;;26.00;99.90;;;;;;5072565;28;20313;-68
2022/03/22 01:51:03;;;;;;;;;;;26.00;99.90;;;;;;5072771;28;20414;-68
2022/03/22 01:53:30;;;;;;;;;;;25.70;99.90;;;;;;5072596;28;20334;-67
2022/03/22 01:55:57;;;;;;;;;;;25.60;99.90;;;;;;5072395;28;19930;-68
2022/03/22 01:58:24;;;;;;;;;;;25.60;99.90;;;;;;5073919;28;20309;-68
2022/03/22 02:05:51;;;;;;;;;;;25.40;99.90;;;;;;5076223;28;20374;-68
2022/03/22 02:06:29;;;;;;;;;;;25.40;99.90;;;;;;5076585;28;19914;-68
2022/03/22 02:08:56;;;;;;;;;;;25.40;99.90;;;;;;5076006;28;20007;-68
2022/03/22 02:11:22;;;;;;;;;;;25.50;99.90;;;;;;5075671;28;19915;-68
2022/03/22 02:13:50;;;;;;;;;;;25.40;99.90;;;;;;5076007;28;19915;-68
2022/03/22 02:16:16;;;;;;;;;;;25.40;99.90;;;;;;5075618;28;20427;-68
2022/03/22 02:18:43;;;;;;;;;;;25.40;99.90;;;;;;5075893;28;19920;-68
2022/03/22 02:21:10;;;;;;;;;;;25.40;99.90;;;;;;5075759;28;19909;-68
2022/03/22 02:23:44;;;;;;;;;;;25.30;99.90;;;;;;5075769;28;19999;-68
2022/03/22 02:26:10;;;;;;;;;;;25.30;99.90;;;;;;5075579;28;19961;-68
2022/03/22 02:28:37;;;;;;;;;;;25.30;99.90;;;;;;5075599;28;20005;-68
2022/03/22 02:31:04;;;;;;;;;;;25.30;99.90;;;;;;5075751;28;20049;-68
2022/03/22 02:33:31;;;;;;;;;;;25.50;99.90;;;;;;5075583;28;19916;-69
2022/03/22 02:35:57;;;;;;;;;;;25.40;99.90;;;;;;5075772;28;19915;-68
2022/03/22 02:38:24;;;;;;;;;;;25.40;99.90;;;;;;5075389;28;19999;-69
2022/03/22 02:40:50;;;;;;;;;;;25.40;99.90;;;;;;5075546;28;19909;-69
2022/03/22 02:43:17;;;;;;;;;;;25.40;99.90;;;;;;5075314;28;19939;-68
2022/03/22 02:45:44;;;;;;;;;;;25.40;99.90;;;;;;5075548;28;20075;-68
2022/03/22 02:48:11;;;;;;;;;;;25.40;99.90;;;;;;5067905;28;19947;-68
2022/03/22 02:50:38;;;;;;;;;;;25.40;99.90;;;;;;5058178;28;19913;-68
2022/03/22 02:53:04;;;;;;;;;;;25.30;99.90;;;;;;5054545;28;19909;-68
2022/03/22 02:55:32;;;;;;;;;;;25.30;99.90;;;;;;5054332;28;19991;-68
2022/03/22 02:57:58;;;;;;;;;;;25.20;99.90;;;;;;5054491;28;20252;-69
2022/03/22 03:00:26;;;;;;;;;;;25.20;99.90;;;;;;5054340;28;19915;-68
2022/03/22 03:02:56;;;;;;;;;;;25.20;99.90;;;;;;5054087;28;19962;-68
2022/03/22 03:05:23;;;;;;;;;;;25.20;99.90;;;;;;5054352;28;19909;-68
2022/03/22 03:07:50;;;;;;;;;;;25.20;99.90;;;;;;5063034;28;19961;-68
2022/03/22 03:10:17;;;;;;;;;;;25.20;99.90;;;;;;5073639;28;19908;-68
2022/03/22 03:12:44;;;;;;;;;;;25.20;99.90;;;;;;5074981;28;19954;-68
2022/03/22 03:15:11;;;;;;;;;;;25.10;99.90;;;;;;5075055;28;19973;-68
2022/03/22 03:17:38;;;;;;;;;;;25.10;99.90;;;;;;5074494;28;20405;-68
2022/03/22 03:20:06;;;;;;;;;;;25.20;99.90;;;;;;5074534;28;20027;-68
2022/03/22 03:22:32;;;;;;;;;;;25.20;99.90;;;;;;5074602;28;20015;-67
2022/03/22 03:24:59;;;;;;;;;;;25.20;99.90;;;;;;5074599;28;20003;-68
2022/03/22 03:27:26;;;;;;;;;;;25.20;99.90;;;;;;5074617;28;20378;-68
2022/03/22 03:29:52;;;;;;;;;;;25.20;99.90;;;;;;5074658;28;19913;-68
2022/03/22 03:32:19;;;;;;;;;;;25.30;99.90;;;;;;5074306;28;19916;-68
2022/03/22 03:34:46;;;;;;;;;;;25.30;99.90;;;;;;5074400;28;19908;-68
2022/03/22 03:37:12;;;;;;;;;;;25.30;99.90;;;;;;5074449;28;19908;-68
2022/03/22 03:39:40;;;;;;;;;;;25.40;99.90;;;;;;5074500;28;19951;-68
2022/03/22 03:42:07;;;;;;;;;;;25.30;99.90;;;;;;5074134;28;19917;-69
2022/03/22 03:47:21;;;;;;;;;;;25.40;99.90;;;;;;5074398;28;19932;-68
2022/03/22 03:49:49;;;;;;;;;;;25.30;99.90;;;;;;5073949;28;19962;-68
2022/03/22 03:52:18;;;;;;;;;;;25.40;99.90;;;;;;5073699;28;19966;-69
2022/03/22 03:54:45;;;;;;;;;;;25.50;99.90;;;;;;5073904;28;19909;-69
2022/03/22 03:57:12;;;;;;;;;;;25.50;99.90;;;;;;5073765;28;19908;-69
2022/03/22 03:59:39;;;;;;;;;;;25.60;99.90;;;;;;5073482;28;19991;-69
2022/03/22 04:02:06;;;;;;;;;;;25.50;99.90;;;;;;5073520;28;20351;-69
2022/03/22 04:04:35;;;;;;;;;;;25.40;99.90;;;;;;5073713;28;19930;-69
2022/03/22 04:07:03;;;;;;;;;;;25.30;99.90;;;;;;5073703;28;19915;-69
2022/03/22 04:09:29;;;;;;;;;;;25.30;99.90;;;;;;5073597;28;19908;-69
2022/03/22 04:11:56;;;;;;;;;;;25.30;99.90;;;;;;5073337;28;20359;-69
2022/03/22 04:14:23;;;;;;;;;;;25.40;99.90;;;;;;5073088;28;19935;-70
2022/03/22 04:16:50;;;;;;;;;;;25.40;99.90;;;;;;5073040;28;20278;-69
2022/03/22 04:19:17;;;;;;;;;;;25.40;99.90;;;;;;5073504;28;19912;-69
2022/03/22 04:21:45;;;;;;;;;;;25.30;99.90;;;;;;5073117;28;19959;-69
2022/03/22 04:24:12;;;;;;;;;;;25.30;99.90;;;;;;5073337;28;19970;-69
2022/03/22 04:26:39;;;;;;;;;;;25.30;99.90;;;;;;5073465;28;19909;-69
2022/03/22 04:34:39;;;;;;;;;;;25.40;99.90;;;;;;5073787;28;19919;-69
2022/03/22 04:37:07;;;;;;;;;;;25.50;99.90;;;;;;5073353;28;19919;-69
2022/03/22 04:39:33;;;;;;;;;;;25.60;99.90;;;;;;5073152;28;19999;-69
2022/03/22 04:42:01;;;;;;;;;;;25.60;99.90;;;;;;5073190;28;20062;-69
2022/03/22 04:44:29;;;;;;;;;;;25.60;99.90;;;;;;5055146;28;20250;-69
2022/03/22 04:46:56;;;;;;;;;;;25.50;99.90;;;;;;5073057;28;19932;-69
2022/03/22 04:49:24;;;;;;;;;;;25.50;99.90;;;;;;5073043;28;19916;-69
2022/03/22 04:57:20;;;;;;;;;;;25.50;99.90;;;;;;5073645;28;19934;-69
2022/03/22 04:59:47;;;;;;;;;;;25.50;99.90;;;;;;5073257;28;19913;-69
2022/03/22 05:02:14;;;;;;;;;;;25.50;99.90;;;;;;5072480;28;20057;-69
2022/03/22 05:04:41;;;;;;;;;;;25.40;99.90;;;;;;5073042;28;19908;-69
2022/03/22 05:07:08;;;;;;;;;;;25.40;99.90;;;;;;5072806;28;19999;-69
2022/03/22 05:09:35;;;;;;;;;;;25.50;99.90;;;;;;5072833;28;19997;-69
2022/03/22 05:12:02;;;;;;;;;;;25.30;99.90;;;;;;5072881;28;19908;-70
2022/03/22 05:14:29;;;;;;;;;;;25.30;99.90;;;;;;5073026;28;19908;-69
2022/03/22 05:16:58;;;;;;;;;;;25.20;99.90;;;;;;5072687;28;19920;-69
2022/03/22 05:19:26;;;;;;;;;;;25.20;99.90;;;;;;5072929;28;19908;-69
2022/03/22 05:21:53;;;;;;;;;;;25.30;99.90;;;;;;5072827;28;20034;-70
2022/03/22 05:24:20;;;;;;;;;;;25.30;99.90;;;;;;5072568;28;19909;-70
2022/03/22 05:26:47;;;;;;;;;;;25.30;99.90;;;;;;5072899;28;19916;-69
2022/03/22 05:29:13;;;;;;;;;;;25.20;99.90;;;;;;5072853;28;19948;-69
2022/03/22 05:31:40;;;;;;;;;;;25.40;99.90;;;;;;5072929;28;19909;-70
2022/03/22 05:34:07;;;;;;;;;;;25.30;99.90;;;;;;5075554;28;20363;-70
2022/03/22 05:36:34;;;;;;;;;;;25.30;99.90;;;;;;5076640;28;19908;-70
2022/03/22 05:39:01;;;;;;;;;;;25.20;99.90;;;;;;5076635;28;19909;-70
2022/03/22 05:41:27;;;;;;;;;;;25.30;99.90;;;;;;5076437;28;19915;-70
2022/03/22 05:43:54;;;;;;;;;;;25.30;99.90;;;;;;5076459;28;19919;-70
2022/03/22 05:46:22;;;;;;;;;;;25.30;99.90;;;;;;5076317;28;19915;-70
2022/03/22 05:48:48;;;;;;;;;;;25.30;99.90;;;;;;5076373;28;20367;-69
2022/03/22 05:51:18;;;;;;;;;;;25.20;99.90;;;;;;5074690;28;19908;-70
2022/03/22 05:53:45;;;;;;;;;;;25.20;99.90;;;;;;5074213;28;19919;-70
2022/03/22 05:56:12;;;;;;;;;;;25.10;99.90;;;;;;5073865;28;19912;-70
2022/03/22 05:58:39;;;;;;;;;;;25.00;99.90;;;;;;5074037;28;19970;-70
2022/03/22 06:01:06;;;;;;;;;;;25.00;99.90;;;;;;5074159;28;19996;-70
2022/03/22 06:03:33;;;;;;;;;;;25.10;99.90;;;;;;5073642;28;19920;-70
2022/03/22 06:06:00;;;;;;;;;;;25.00;99.90;;;;;;5073508;28;19912;-70
2022/03/22 06:08:29;;;;;;;;;;;25.00;99.90;;;;;;5073818;28;20011;-70
2022/03/22 06:10:58;;;;;;;;;;;25.00;99.90;;;;;;5073712;28;19918;-70
2022/03/22 06:13:25;;;;;;;;;;;25.00;99.90;;;;;;5073593;28;19909;-70
2022/03/22 06:15:52;;;;;;;;;;;24.90;99.90;;;;;;5073715;28;19959;-69
2022/03/22 06:18:18;;;;;;;;;;;24.90;99.90;;;;;;5073266;28;20018;-70
2022/03/22 06:20:45;;;;;;;;;;;24.80;99.90;;;;;;5073519;28;19912;-69
2022/03/22 06:23:13;;;;;;;;;;;24.80;99.90;;;;;;5073530;28;19916;-70
2022/03/22 06:25:40;;;;;;;;;;;24.70;99.90;;;;;;5073790;28;19947;-70
2022/03/22 06:28:09;;;;;;;;;;;24.70;99.90;;;;;;5073301;28;20351;-70
2022/03/22 06:30:36;;;;;;;;;;;24.70;99.90;;;;;;5073055;28;19909;-70
2022/03/22 06:33:13;;;;;;;;;;;24.70;99.90;;;;;;5073525;28;19916;-70
2022/03/22 06:35:40;;;;;;;;;;;24.70;99.90;;;;;;5073310;28;20014;-70
2022/03/22 06:38:07;;;;;;;;;;;24.60;99.90;;;;;;5073353;28;19909;-69
2022/03/22 06:40:39;;;;;;;;;;;24.60;99.90;;;;;;5073337;28;20305;-69
2022/03/22 06:43:10;;;;;;;;;;;24.60;99.90;;;;;;5072921;28;19923;-69
2022/03/22 06:45:37;;;;;;;;;;;24.60;99.90;;;;;;5073027;28;19916;-69
2022/03/22 06:48:06;;;;;;;;;;;24.50;99.90;;;;;;5073124;28;19912;-69
2022/03/22 06:50:34;;;;;;;;;;;24.50;99.90;;;;;;5072958;28;19913;-69
2022/03/22 06:53:01;;;;;;;;;;;24.40;99.90;;;;;;5073324;28;20374;-69
2022/03/22 06:55:28;;;;;;;;;;;24.40;99.90;;;;;;5073239;28;19912;-69
2022/03/22 06:57:56;;;;;;;;;;;24.30;99.90;;;;;;5072568;28;19919;-69
2022/03/22 07:00:22;;;;;;;;;;;24.30;99.90;;;;;;5072960;28;19919;-69
2022/03/22 07:02:49;;;;;;;;;;;24.20;99.90;;;;;;5072380;28;19943;-69
2022/03/22 07:05:16;;;;;;;;;;;24.20;99.90;;;;;;5072922;28;19913;-70
2022/03/22 07:07:43;;;;;;;;;;;24.20;99.90;;;;;;5072736;28;19912;-69
2022/03/22 07:10:15;;;;;;;;;;;24.20;99.90;;;;;;5072205;28;19989;-70
2022/03/22 07:13:04;;;;;;;;;;;24.10;99.90;;;;;;5072749;28;19916;-70
2022/03/22 07:15:33;;;;;;;;;;;24.10;99.90;;;;;;5072594;28;20680;-70
2022/03/22 07:18:00;;;;;;;;;;;24.00;99.90;;;;;;5072314;28;19952;-70
2022/03/22 07:20:27;;;;;;;;;;;24.00;99.90;;;;;;5072205;28;19917;-70
2022/03/22 07:22:54;;;;;;;;;;;24.00;99.90;;;;;;5072025;28;19916;-70
2022/03/22 07:25:21;;;;;;;;;;;24.00;99.90;;;;;;5072465;28;19920;-70
2022/03/22 07:27:48;;;;;;;;;;;23.90;99.90;;;;;;5072470;28;19908;-70
2022/03/22 07:30:15;;;;;;;;;;;23.90;99.90;;;;;;5072158;28;19912;-70
2022/03/22 07:32:43;;;;;;;;;;;23.80;99.90;;;;;;5072253;28;19923;-71
2022/03/22 07:35:10;;;;;;;;;;;23.80;99.90;;;;;;5072437;28;19909;-70
2022/03/22 07:37:37;;;;;;;;;;;23.80;99.90;;;;;;5072030;28;19942;-70
2022/03/22 07:40:05;;;;;;;;;;;23.70;99.90;;;;;;5071860;28;20267;-70
2022/03/22 07:42:32;;;;;;;;;;;23.60;99.90;;;;;;5072033;28;19926;-70
2022/03/22 07:45:01;;;;;;;;;;;23.70;99.90;;;;;;5072071;28;20393;-70
2022/03/22 07:47:29;;;;;;;;;;;23.70;99.90;;;;;;5071934;28;19908;-70
2022/03/22 07:53:01;;;;;;;;;;;23.60;99.90;;;;;;5072377;28;19978;-70
2022/03/22 07:55:32;;;;;;;;;;;23.50;99.90;;;;;;5071787;28;20303;-70
2022/03/22 07:57:59;;;;;;;;;;;23.50;99.90;;;;;;5071999;28;19912;-70
2022/03/22 08:00:26;;;;;;;;;;;23.50;99.90;;;;;;5071857;28;19916;-70
2022/03/22 08:02:57;;;;;;;;;;;23.50;99.90;;;;;;5071170;28;19920;-70
2022/03/22 08:05:24;;;;;;;;;;;23.40;99.90;;;;;;5072122;28;19916;-70
2022/03/22 08:07:53;;;;;;;;;;;23.40;99.90;;;;;;5073914;28;19908;-71
2022/03/22 08:10:21;;;;;;;;;;;23.40;99.90;;;;;;5073503;28;20263;-69
2022/03/22 08:12:47;;;;;;;;;;;23.30;99.90;;;;;;5073776;28;19912;-69
2022/03/22 08:15:14;;;;;;;;;;;23.30;99.90;;;;;;5061271;28;19991;-70
2022/03/22 08:17:41;;;;;;;;;;;23.20;99.90;;;;;;5053494;28;20264;-70
2022/03/22 08:20:09;;;;;;;;;;;23.30;99.90;;;;;;5052861;28;19916;-70
2022/03/22 08:22:49;;;;;;;;;;;23.20;99.90;;;;;;5053462;28;19940;-70
2022/03/22 08:25:16;;;;;;;;;;;23.20;99.90;;;;;;5053644;28;19912;-70
2022/03/22 08:27:43;;;;;;;;;;;23.10;99.90;;;;;;5035713;28;20023;-70
2022/03/22 08:30:12;;;;;;;;;;;23.10;99.90;;;;;;5053258;28;19909;-70
2022/03/22 08:32:40;;;;;;;;;;;23.10;99.90;;;;;;5053303;28;19909;-70
2022/03/22 08:35:07;;;;;;;;;;;23.10;99.90;;;;;;5052852;28;19913;-70
2022/03/22 08:37:35;;;;;;;;;;;23.10;99.90;;;;;;5053385;28;19962;-70
2022/03/22 08:40:02;;;;;;;;;;;23.00;99.90;;;;;;5052899;28;19909;-67
2022/03/22 08:42:28;;;;;;;;;;;23.00;99.90;;;;;;5053348;28;19963;-70
2022/03/22 08:44:55;;;;;;;;;;;23.00;99.90;;;;;;5053075;28;19909;-69
2022/03/22 08:47:22;;;;;;;;;;;23.00;99.90;;;;;;5053021;28;19931;-69
2022/03/22 08:49:49;;;;;;;;;;;23.00;99.90;;;;;;5052639;28;19920;-68
2022/03/22 08:52:16;;;;;;;;;;;22.90;99.90;;;;;;5052855;28;19940;-69
2022/03/22 08:54:42;;;;;;;;;;;22.90;99.90;;;;;;5053019;28;19959;-70
2022/03/22 08:57:09;;;;;;;;;;;22.90;99.90;;;;;;5053145;28;19909;-70
2022/03/22 08:59:35;;;;;;;;;;;22.90;99.90;;;;;;5053089;28;19915;-70
2022/03/22 09:02:02;;;;;;;;;;;22.90;99.90;;;;;;5052748;28;19971;-69
2022/03/22 09:07:14;;;;;;;;;;;22.80;99.90;;;;;;5055027;28;20008;-69
2022/03/22 09:09:40;;;;;;;;;;;22.80;99.90;;;;;;5057295;28;19909;-69
2022/03/22 09:12:07;;;;;;;;;;;22.80;99.90;;;;;;5056955;28;19913;-69
2022/03/22 09:14:34;;;;;;;;;;;22.70;99.90;;;;;;5057103;28;19915;-70
2022/03/22 09:17:01;;;;;;;;;;;22.80;99.90;;;;;;5056718;28;19949;-70
2022/03/22 09:19:29;;;;;;;;;;;22.80;99.90;;;;;;5055738;28;20401;-70
2022/03/22 09:21:56;;;;;;;;;;;22.70;99.90;;;;;;5054804;28;19925;-70
2022/03/22 09:24:22;;;;;;;;;;;22.70;99.90;;;;;;5054618;28;19923;-70
2022/03/22 09:26:49;;;;;;;;;;;22.70;99.90;;;;;;5054834;28;19912;-70
2022/03/22 09:29:16;;;;;;;;;;;22.70;99.90;;;;;;5054758;28;20419;-70
2022/03/22 09:31:42;;;;;;;;;;;22.70;99.90;;;;;;5054464;28;20268;-70
2022/03/22 09:34:13;;;;;;;;;;;22.60;99.90;;;;;;5054175;28;19969;-70
2022/03/22 09:36:39;;;;;;;;;;;22.60;99.90;;;;;;5054698;28;19954;-69
2022/03/22 09:39:06;;;;;;;;;;;22.60;99.90;;;;;;5054360;28;19920;-70
2022/03/22 09:41:34;;;;;;;;;;;22.60;99.90;;;;;;5054680;28;19909;-70
2022/03/22 09:44:02;;;;;;;;;;;22.60;99.90;;;;;;5054313;28;20367;-70
2022/03/22 09:46:32;;;;;;;;;;;22.60;99.90;;;;;;5053870;28;19909;-70
2022/03/22 09:48:59;;;;;;;;;;;22.60;99.90;;;;;;5054557;28;19913;-70
2022/03/22 09:54:27;;;;;;;;;;;22.60;99.90;;;;;;4973107;28;19917;-70
2022/03/22 09:56:54;;;;;;;;;;;22.50;99.90;;;;;;5037630;28;20315;-70
2022/03/22 09:59:21;;;;;;;;;;;22.50;99.90;;;;;;5053698;28;19916;-70
2022/03/22 10:01:48;;;;;;;;;;;22.50;99.90;;;;;;5054071;28;19913;-70
2022/03/22 10:04:15;;;;;;;;;;;22.50;99.90;;;;;;5053837;28;19999;-70
2022/03/22 10:06:48;;;;;;;;;;;22.50;99.90;;;;;;5053990;28;19940;-70
2022/03/22 10:09:14;;;;;;;;;;;22.50;99.90;;;;;;5054138;28;19912;-70
2022/03/22 10:11:42;;;;;;;;;;;22.50;99.90;;;;;;5053662;28;20407;-70
2022/03/22 10:14:09;;;;;;;;;;;22.50;99.90;;;;;;5053830;28;19912;-71
2022/03/22 10:16:46;;;;;;;;;;;22.50;99.90;;;;;;5053387;28;19935;-70
2022/03/22 10:19:23;;;;;;;;;;;22.50;99.90;;;;;;5053406;28;19952;-71
2022/03/22 10:21:50;;;;;;;;;;;22.50;99.90;;;;;;5065391;28;19913;-71
2022/03/22 10:24:17;;;;;;;;;;;22.50;99.90;;;;;;5073102;28;19916;-71
2022/03/22 10:26:47;;;;;;;;;;;22.50;99.90;;;;;;5073015;28;19919;-71
2022/03/22 10:29:17;;;;;;;;;;;22.40;99.90;;;;;;5073315;28;19909;-70
2022/03/22 10:31:44;;;;;;;;;;;22.40;99.90;;;;;;5073296;28;20266;-71
2022/03/22 10:34:13;;;;;;;;;;;22.40;99.90;;;;;;5073132;28;19913;-70
2022/03/22 10:36:40;;;;;;;;;;;22.40;99.90;;;;;;5073179;28;20388;-70
2022/03/22 10:39:12;;;;;;;;;;;22.40;99.90;;;;;;5073176;28;19912;-71
2022/03/22 10:41:41;;;;;;;;;;;22.40;99.90;;;;;;5073392;28;19909;-71
2022/03/22 10:44:25;;;;;;;;;;;22.40;99.90;;;;;;5073359;28;19920;-70
2022/03/22 10:46:52;;;;;;;;;;;22.40;99.90;;;;;;5073320;28;20314;-71
2022/03/22 10:49:19;;;;;;;;;;;22.40;99.90;;;;;;5073482;28;19909;-70
2022/03/22 10:51:50;;;;;;;;;;;22.40;99.90;;;;;;5072986;28;19912;-70
2022/03/22 10:54:19;;;;;;;;;;;22.40;99.90;;;;;;5072888;28;19916;-71
2022/03/22 10:56:47;;;;;;;;;;;22.30;99.90;;;;;;5073115;28;20159;-71
2022/03/22 10:59:14;;;;;;;;;;;22.30;99.90;;;;;;5073158;28;19944;-70
2022/03/22 11:01:44;;;;;;;;;;;22.40;99.90;;;;;;5072763;28;19943;-71
2022/03/22 11:04:15;;;;;;;;;;;22.30;99.90;;;;;;5072679;28;19909;-70
2022/03/22 11:06:42;;;;;;;;;;;22.30;99.90;;;;;;5072990;28;19932;-70
2022/03/22 11:09:09;;;;;;;;;;;22.30;99.90;;;;;;5073102;28;19915;-70
2022/03/22 11:11:36;;;;;;;;;;;22.30;99.90;;;;;;5073138;28;19912;-70
2022/03/22 11:14:03;;;;;;;;;;;22.30;99.90;;;;;;5072923;28;19909;-70
2022/03/22 11:16:31;;;;;;;;;;;22.30;99.90;;;;;;5072448;28;19916;-70
2022/03/22 11:19:04;;;;;;;;;;;22.30;99.90;;;;;;5071563;28;20213;-70
2022/03/22 11:21:31;;;;;;;;;;;22.30;99.90;;;;;;5072663;28;19985;-70
2022/03/22 11:24:10;;;;;;;;;;;22.20;99.90;;;;;;5072901;28;20283;-70
2022/03/22 11:26:44;;;;;;;;;;;22.20;99.90;;;;;;5072696;28;19925;-70
2022/03/22 11:29:15;;;;;;;;;;;22.20;99.90;;;;;;5071807;28;19954;-70
2022/03/22 11:31:42;;;;;;;;;;;22.20;99.90;;;;;;5070388;28;19970;-70
2022/03/22 11:34:09;;;;;;;;;;;22.20;99.90;;;;;;5071999;28;19909;-70
2022/03/22 11:36:41;;;;;;;;;;;22.20;99.90;;;;;;5072372;28;19955;-70
2022/03/22 11:39:07;;;;;;;;;;;22.20;99.90;;;;;;5072389;28;19912;-70
2022/03/22 11:44:39;;;;;;;;;;;22.20;99.90;;;;;;5072371;28;20380;-71
2022/03/22 11:47:17;;;;;;;;;;;22.10;99.90;;;;;;5072150;28;19915;-70
2022/03/22 11:49:59;;;;;;;;;;;22.10;99.90;;;;;;5072279;28;19908;-71
2022/03/22 11:52:32;;;;;;;;;;;22.10;99.90;;;;;;5071904;28;19909;-71
2022/03/22 11:55:09;;;;;;;;;;;22.10;99.90;;;;;;5071981;28;19990;-72
2022/03/22 11:57:54;;;;;;;;;;;22.10;99.90;;;;;;5071761;28;19908;-71
2022/03/22 12:00:22;;;;;;;;;;;22.10;99.90;;;;;;5071581;28;19909;-71
2022/03/22 12:02:54;;;;;;;;;;;22.10;99.90;;;;;;5071951;28;20003;-69
2022/03/22 12:05:23;;;;;;;;;;;22.00;99.90;;;;;;5071798;28;19915;-70
2022/03/22 12:07:51;;;;;;;;;;;22.00;99.90;;;;;;5071805;28;19909;-70
2022/03/22 12:10:19;;;;;;;;;;;22.00;99.90;;;;;;5071212;28;20352;-70
2022/03/22 12:12:50;;;;;;;;;;;22.00;99.90;;;;;;5071704;28;19908;-70
2022/03/22 12:15:24;;;;;;;;;;;22.00;99.90;;;;;;5071588;28;19916;-70
2022/03/22 12:17:50;;;;;;;;;;;22.00;99.90;;;;;;5058816;28;20402;-70
2022/03/22 12:20:18;;;;;;;;;;;22.10;99.90;;;;;;5051337;28;19978;-70
2022/03/22 12:22:46;;;;;;;;;;;22.00;99.90;;;;;;5051181;28;19917;-70
2022/03/22 12:25:15;;;;;;;;;;;22.00;99.90;;;;;;5051544;28;20348;-70
2022/03/22 12:27:58;;;;;;;;;;;22.10;99.90;;;;;;5051278;28;20325;-70
2022/03/22 12:30:26;;;;;;;;;;;22.00;99.90;;;;;;5051349;28;19909;-70
2022/03/22 12:32:53;;;;;;;;;;;22.00;99.90;;;;;;5051602;28;20363;-70
2022/03/22 12:35:21;;;;;;;;;;;22.10;99.90;;;;;;5051333;28;19913;-70
2022/03/22 12:37:48;;;;;;;;;;;22.10;99.90;;;;;;5051251;28;19913;-70
2022/03/22 12:40:16;;;;;;;;;;;22.00;99.90;;;;;;5051164;28;20382;-70
2022/03/22 12:42:44;;;;;;;;;;;22.10;99.90;;;;;;5050815;28;19917;-70
2022/03/22 12:45:11;;;;;;;;;;;22.10;99.90;;;;;;5051394;28;19913;-70
2022/03/22 12:47:42;;;;;;;;;;;22.10;99.90;;;;;;5051195;28;19920;-70
2022/03/22 12:50:09;;;;;;;;;;;22.10;99.90;;;;;;5050843;28;20051;-71
2022/03/22 12:52:36;;;;;;;;;;;22.10;99.90;;;;;;5051201;28;19913;-70
2022/03/22 12:55:04;;;;;;;;;;;22.10;99.90;;;;;;5050988;28;19909;-70
2022/03/22 12:57:31;;;;;;;;;;;22.10;99.90;;;;;;5051363;28;19915;-70
2022/03/22 12:59:57;;;;;;;;;;;22.10;99.90;;;;;;5050818;28;19912;-70
2022/03/22 13:02:24;;;;;;;;;;;22.10;99.90;;;;;;5050493;28;19924;-70
2022/03/22 13:04:53;;;;;;;;;;;22.10;99.90;;;;;;5051000;28;20286;-70
2022/03/22 13:07:21;;;;;;;;;;;22.10;99.90;;;;;;5051059;28;19912;-71
2022/03/22 13:12:34;;;;;;;;;;;22.10;99.90;;;;;;5051126;28;19920;-70
2022/03/22 13:15:04;;;;;;;;;;;22.10;99.90;;;;;;5050558;28;19908;-69
2022/03/22 13:17:52;;;;;;;;;;;22.00;99.90;;;;;;5050604;28;19921;-69
2022/03/22 13:20:27;;;;;;;;;;;22.00;99.90;;;;;;5051666;28;19909;-69
2022/03/22 13:23:09;;;;;;;;;;;22.00;99.90;;;;;;5052966;28;19924;-70
2022/03/22 13:25:37;;;;;;;;;;;21.90;99.90;;;;;;5053147;28;19909;-69
2022/03/22 13:28:09;;;;;;;;;;;22.00;99.90;;;;;;5052933;28;19916;-69
2022/03/22 13:30:36;;;;;;;;;;;21.90;99.90;;;;;;5052774;28;19913;-69
2022/03/22 13:33:30;;;;;;;;;;;21.80;99.90;;;;;;5052822;28;20008;-70
2022/03/22 13:35:57;;;;;;;;;;;21.80;99.90;;;;;;5050221;28;19913;-69
2022/03/22 13:38:25;;;;;;;;;;;21.80;99.90;;;;;;5052666;28;20322;-70
2022/03/22 13:40:59;;;;;;;;;;;21.80;99.90;;;;;;5052837;28;19952;-69
2022/03/22 13:43:26;;;;;;;;;;;21.80;99.90;;;;;;5052735;28;20291;-69
2022/03/22 13:45:54;;;;;;;;;;;21.80;99.90;;;;;;5052779;28;19908;-70
2022/03/22 13:48:21;;;;;;;;;;;21.90;99.90;;;;;;5052514;28;19999;-70
2022/03/22 13:50:48;;;;;;;;;;;21.90;99.90;;;;;;5052721;28;19909;-69
2022/03/22 13:53:16;;;;;;;;;;;21.90;99.90;;;;;;5052532;28;19908;-70
2022/03/22 13:55:44;;;;;;;;;;;21.90;99.90;;;;;;5056414;28;20317;-69
2022/03/22 13:58:16;;;;;;;;;;;22.00;99.90;;;;;;5056250;28;20275;-68
2022/03/22 14:00:44;;;;;;;;;;;21.90;99.90;;;;;;5056291;28;19916;-68
2022/03/22 14:03:12;;;;;;;;;;;21.90;99.90;;;;;;5056314;28;19924;-69
2022/03/22 14:05:39;;;;;;;;;;;21.90;99.90;;;;;;5056382;28;19909;-68
2022/03/22 14:08:06;;;;;;;;;;;21.90;99.90;;;;;;5055992;28;19909;-69
2022/03/22 14:10:33;;;;;;;;;;;21.90;99.90;;;;;;5056264;28;19916;-68
2022/03/22 14:13:00;;;;;;;;;;;21.90;99.90;;;;;;5056172;28;20397;-68
2022/03/22 14:15:27;;;;;;;;;;;21.90;99.90;;;;;;5056176;28;19913;-69
2022/03/22 14:17:53;;;;;;;;;;;22.00;99.90;;;;;;5055749;28;19921;-68
2022/03/22 14:20:21;;;;;;;;;;;22.00;99.90;;;;;;5055831;28;19908;-68
2022/03/22 14:22:49;;;;;;;;;;;21.90;99.90;;;;;;5055946;28;20252;-69
2022/03/22 14:25:16;;;;;;;;;;;21.90;99.90;;;;;;5055994;28;19944;-69
2022/03/22 14:27:43;;;;;;;;;;;21.90;99.90;;;;;;5056155;28;19912;-68
2022/03/22 14:30:17;;;;;;;;;;;21.90;99.90;;;;;;5055735;28;19909;-69
2022/03/22 14:32:47;;;;;;;;;;;21.80;99.90;;;;;;5039049;28;19909;-69
2022/03/22 14:38:00;;;;;;;;;;;21.80;99.90;;;;;;5056195;28;19963;-69
2022/03/22 14:40:27;;;;;;;;;;;21.80;99.90;;;;;;5055408;28;19920;-70
2022/03/22 14:42:55;;;;;;;;;;;21.80;99.90;;;;;;5055596;28;20286;-69
2022/03/22 14:45:23;;;;;;;;;;;21.80;99.90;;;;;;5055379;28;19950;-70
2022/03/22 14:47:50;;;;;;;;;;;21.70;99.90;;;;;;5055469;28;19948;-70
2022/03/22 14:50:18;;;;;;;;;;;21.70;99.90;;;;;;5055369;28;19955;-69
2022/03/22 14:55:31;;;;;;;;;;;21.70;99.90;;;;;;5055836;28;19932;-70
2022/03/22 15:00:42;;;;;;;;;;;21.60;99.90;;;;;;5055623;28;19920;-70
2022/03/22 15:03:10;;;;;;;;;;;21.60;99.90;;;;;;5055077;28;19917;-69